createdAt,value
2023-10-25T00:01:44.116Z,24.50
2023-10-25T00:04:31.444Z,21.80
2023-10-25T00:07:20.130Z,22.80
2023-10-25T00:10:08.792Z,27.90
2023-10-25T00:12:55.687Z,21.90
2023-10-25T00:15:42.305Z,21.00
2023-10-25T00:18:30.086Z,20.70
2023-10-25T00:21:16.869Z,18.10
2023-10-25T00:24:03.749Z,24.00
2023-10-25T00:26:50.733Z,23.60
2023-10-25T00:29:37.382Z,18.00
2023-10-25T00:32:25.218Z,19.30
2023-10-25T00:35:12.004Z,14.80
2023-10-25T00:37:59.182Z,17.80
2023-10-25T00:40:47.765Z,20.30
2023-10-25T00:43:34.498Z,16.90
2023-10-25T00:46:28.286Z,21.90
2023-10-25T00:49:15.794Z,19.60
2023-10-25T00:52:03.137Z,17.70
2023-10-25T00:54:51.162Z,20.00
2023-10-25T00:57:38.588Z,18.80
2023-10-25T01:00:26.514Z,20.20
2023-10-25T01:03:13.849Z,23.10
2023-10-25T01:06:02.650Z,19.90
2023-10-25T01:08:49.577Z,23.20
2023-10-25T01:11:36.669Z,21.30
2023-10-25T01:14:27.496Z,18.70
2023-10-25T01:17:14.587Z,21.70
2023-10-25T01:20:01.436Z,24.40
2023-10-25T01:22:49.226Z,18.20
2023-10-25T01:25:36.315Z,22.60
2023-10-25T01:28:23.713Z,16.40
2023-10-25T01:31:10.702Z,23.80
2023-10-25T01:33:57.696Z,20.50
2023-10-25T01:36:46.380Z,19.30
2023-10-25T01:39:33.254Z,18.00
2023-10-25T01:42:19.948Z,23.70
2023-10-25T01:45:07.364Z,19.50
2023-10-25T01:47:56.348Z,22.20
2023-10-25T01:50:43.510Z,19.20
2023-10-25T01:53:30.291Z,21.50
2023-10-25T01:56:17.185Z,22.20
2023-10-25T01:59:04.069Z,29.30
2023-10-25T02:01:51.240Z,16.20
2023-10-25T02:04:38.108Z,16.50
2023-10-25T02:07:25.321Z,19.70
2023-10-25T02:10:14.519Z,22.90
2023-10-25T02:13:01.492Z,21.00
2023-10-25T02:15:48.230Z,20.10
2023-10-25T02:18:35.262Z,22.80
2023-10-25T02:21:22.551Z,20.30
2023-10-25T02:24:12.145Z,25.40
2023-10-25T02:26:58.933Z,24.00
2023-10-25T02:29:45.707Z,21.40
2023-10-25T02:32:32.751Z,19.90
2023-10-25T02:35:19.787Z,17.80
2023-10-25T02:38:07.478Z,20.90
2023-10-25T02:40:54.168Z,19.90
2023-10-25T02:43:41.139Z,22.30
2023-10-25T02:46:28.118Z,21.90
2023-10-25T02:49:14.964Z,19.30
2023-10-25T02:52:01.939Z,26.30
2023-10-25T02:54:48.595Z,23.00
2023-10-25T02:57:35.264Z,24.20
2023-10-25T03:00:22.150Z,23.20
2023-10-25T03:03:09.287Z,23.50
2023-10-25T03:05:56.219Z,20.50
2023-10-25T03:08:43.108Z,19.10
2023-10-25T03:11:30.088Z,23.20
2023-10-25T03:14:16.672Z,25.30
2023-10-25T03:17:03.357Z,22.00
2023-10-25T03:19:50.556Z,19.20
2023-10-25T03:22:37.546Z,18.80
2023-10-25T03:25:24.630Z,16.40
2023-10-25T03:28:11.540Z,20.10
2023-10-25T03:30:59.146Z,19.20
2023-10-25T03:33:46.294Z,20.60
2023-10-25T03:36:35.489Z,26.50
2023-10-25T03:39:22.869Z,20.90
2023-10-25T03:42:09.652Z,19.40
2023-10-25T03:44:56.940Z,18.20
2023-10-25T03:47:43.966Z,19.20
2023-10-25T03:50:31.312Z,20.10
2023-10-25T03:53:19.278Z,14.20
2023-10-25T03:56:05.987Z,16.60
2023-10-25T03:58:53.000Z,17.20
2023-10-25T04:01:40.574Z,18.80
2023-10-25T04:04:27.385Z,18.20
2023-10-25T04:07:14.081Z,19.30
2023-10-25T04:10:01.138Z,18.60
2023-10-25T04:12:47.790Z,22.00
2023-10-25T04:15:36.522Z,18.90
2023-10-25T04:18:28.680Z,23.10
2023-10-25T04:21:15.507Z,23.40
2023-10-25T04:24:02.774Z,27.30
2023-10-25T04:26:49.185Z,19.90
2023-10-25T04:29:35.690Z,21.20
2023-10-25T04:32:22.834Z,20.20
2023-10-25T04:35:09.399Z,22.20
2023-10-25T04:37:56.899Z,23.20
2023-10-25T04:40:43.671Z,19.80
2023-10-25T04:43:31.669Z,18.10
2023-10-25T04:46:18.837Z,19.70
2023-10-25T04:49:06.056Z,20.50
2023-10-25T04:51:53.349Z,19.90
2023-10-25T04:54:44.120Z,23.60
2023-10-25T04:57:30.627Z,22.40
2023-10-25T05:00:17.509Z,22.60
2023-10-25T05:03:06.710Z,25.90
2023-10-25T05:05:59.280Z,20.80
2023-10-25T05:08:46.568Z,23.60
2023-10-25T05:11:36.151Z,26.40
2023-10-25T05:14:23.245Z,33.80
2023-10-25T05:17:10.978Z,18.90
2023-10-25T05:19:58.837Z,21.70
2023-10-25T05:22:51.237Z,23.90
2023-10-25T05:25:38.020Z,24.30
2023-10-25T05:28:25.070Z,21.90
2023-10-25T05:31:14.345Z,25.60
2023-10-25T05:34:02.144Z,22.60
2023-10-25T05:36:49.108Z,17.70
2023-10-25T05:39:36.249Z,22.00
2023-10-25T05:42:25.152Z,18.30
2023-10-25T05:45:11.539Z,19.60
2023-10-25T05:47:58.519Z,20.30
2023-10-25T05:50:48.996Z,19.30
2023-10-25T05:53:36.100Z,19.00
2023-10-25T05:56:27.329Z,25.60
2023-10-25T05:59:14.012Z,20.40
2023-10-25T06:02:12.191Z,21.20
2023-10-25T06:05:05.953Z,22.30
2023-10-25T06:07:54.463Z,22.20
2023-10-25T06:10:43.213Z,22.70
2023-10-25T06:13:30.036Z,21.60
2023-10-25T06:16:17.159Z,24.10
2023-10-25T06:19:03.944Z,24.80
2023-10-25T06:21:50.747Z,25.20
2023-10-25T06:24:37.713Z,22.70
2023-10-25T06:27:24.436Z,22.90
2023-10-25T06:30:11.725Z,23.80
2023-10-25T06:33:00.118Z,26.20
2023-10-25T06:35:47.184Z,25.90
2023-10-25T06:38:37.530Z,25.30
2023-10-25T06:41:24.700Z,26.30
2023-10-25T06:44:14.241Z,28.80
2023-10-25T06:47:01.235Z,24.20
2023-10-25T06:49:48.597Z,25.10
2023-10-25T06:52:35.529Z,23.80
2023-10-25T06:55:22.771Z,24.00
2023-10-25T06:58:11.960Z,28.90
2023-10-25T07:00:59.164Z,24.70
2023-10-25T07:03:48.328Z,21.70
2023-10-25T07:06:35.774Z,21.30
2023-10-25T07:09:22.439Z,23.00
2023-10-25T07:12:09.228Z,22.10
2023-10-25T07:14:58.134Z,20.00
2023-10-25T07:17:46.236Z,20.00
2023-10-25T07:20:33.202Z,19.70
2023-10-25T07:23:20.285Z,22.20
2023-10-25T07:26:08.111Z,18.50
2023-10-25T07:28:54.978Z,20.50
2023-10-25T07:31:41.999Z,20.30
2023-10-25T07:34:28.976Z,23.60
2023-10-25T07:37:16.625Z,20.50
2023-10-25T07:40:06.950Z,22.20
2023-10-25T07:42:53.704Z,18.00
2023-10-25T07:45:40.326Z,19.40
2023-10-25T07:48:28.654Z,17.90
2023-10-25T07:51:15.665Z,18.50
2023-10-25T07:54:05.672Z,18.30
2023-10-25T07:59:41.941Z,27.40
2023-10-25T08:02:29.009Z,14.40
2023-10-25T08:05:17.771Z,17.50
2023-10-25T08:08:05.434Z,17.10
2023-10-25T08:11:06.002Z,18.40
2023-10-25T08:13:53.231Z,17.10
2023-10-25T08:16:40.857Z,15.90
2023-10-25T08:19:27.998Z,16.20
2023-10-25T08:22:15.394Z,15.20
2023-10-25T08:25:02.332Z,17.70
2023-10-25T08:27:49.089Z,47.10
2023-10-25T08:30:36.454Z,16.00
2023-10-25T08:33:23.874Z,15.10
2023-10-25T08:36:11.249Z,19.40
2023-10-25T08:39:00.736Z,18.70
2023-10-25T08:41:48.619Z,15.20
2023-10-25T08:44:40.382Z,17.00
2023-10-25T08:47:27.605Z,16.00
2023-10-25T08:50:20.797Z,16.60
2023-10-25T08:53:08.795Z,18.80
2023-10-25T08:55:57.124Z,29.10
2023-10-25T08:58:44.265Z,13.30
2023-10-25T09:01:31.653Z,13.20
2023-10-25T09:04:19.083Z,15.30
2023-10-25T09:07:30.456Z,12.30
2023-10-25T09:10:18.939Z,13.20
2023-10-25T09:13:14.390Z,19.50
2023-10-25T09:16:17.941Z,13.80
2023-10-25T09:19:05.185Z,15.30
2023-10-25T09:21:53.935Z,13.20
2023-10-25T09:24:51.207Z,9.80
2023-10-25T09:27:43.261Z,10.40
2023-10-25T09:30:31.406Z,14.30
2023-10-25T09:33:18.544Z,9.60
2023-10-25T09:36:05.682Z,11.50
2023-10-25T09:38:54.428Z,8.80
2023-10-25T09:41:41.968Z,8.60
2023-10-25T09:44:32.960Z,8.80
2023-10-25T09:47:20.345Z,8.30
2023-10-25T09:50:17.213Z,8.90
2023-10-25T09:53:18.604Z,7.50
2023-10-25T09:56:06.794Z,6.90
2023-10-25T09:58:54.970Z,8.50
2023-10-25T10:01:42.423Z,8.20
2023-10-25T10:04:45.755Z,8.70
2023-10-25T10:07:35.995Z,11.10
2023-10-25T10:10:28.334Z,9.40
2023-10-25T10:13:19.203Z,8.30
2023-10-25T10:16:10.496Z,8.90
2023-10-25T10:18:57.757Z,10.30
2023-10-25T10:22:04.108Z,10.40
2023-10-25T10:24:54.540Z,7.20
2023-10-25T10:27:41.495Z,7.50
2023-10-25T10:30:34.641Z,7.40
2023-10-25T10:33:25.596Z,10.40
2023-10-25T10:36:15.214Z,6.20
2023-10-25T10:39:17.702Z,7.00
2023-10-25T10:42:04.619Z,11.70
2023-10-25T10:44:51.562Z,5.90
2023-10-25T10:47:41.103Z,7.90
2023-10-25T10:50:28.558Z,8.20
2023-10-25T10:53:15.371Z,8.70
2023-10-25T10:56:01.958Z,10.80
2023-10-25T10:58:48.946Z,8.20
2023-10-25T11:01:35.546Z,9.10
2023-10-25T11:04:22.564Z,6.20
2023-10-25T11:07:09.606Z,7.80
2023-10-25T11:09:57.620Z,7.00
2023-10-25T11:12:44.576Z,7.60
2023-10-25T11:15:31.860Z,9.80
2023-10-25T11:18:18.872Z,9.90
2023-10-25T11:21:05.667Z,12.30
2023-10-25T11:23:52.753Z,9.50
2023-10-25T11:26:41.996Z,9.00
2023-10-25T11:29:29.484Z,8.10
2023-10-25T11:32:16.686Z,10.50
2023-10-25T11:35:05.207Z,10.90
2023-10-25T11:37:54.106Z,9.90
2023-10-25T11:40:44.567Z,7.70
2023-10-25T11:43:32.152Z,8.00
2023-10-25T11:46:18.789Z,7.70
2023-10-25T11:49:06.737Z,10.70
2023-10-25T11:51:54.909Z,7.70
2023-10-25T11:54:41.800Z,7.10
2023-10-25T11:57:30.698Z,6.60
2023-10-25T12:00:17.485Z,7.00
2023-10-25T12:03:04.292Z,4.40
2023-10-25T12:05:52.344Z,7.10
2023-10-25T12:08:43.113Z,7.20
2023-10-25T12:11:30.737Z,5.70
2023-10-25T12:14:31.347Z,8.70
2023-10-25T12:17:19.819Z,3.90
2023-10-25T12:20:25.854Z,3.20
2023-10-25T12:23:14.110Z,5.00
2023-10-25T12:26:01.801Z,8.40
2023-10-25T12:28:48.469Z,4.70
2023-10-25T12:31:35.420Z,3.20
2023-10-25T12:34:22.560Z,2.50
2023-10-25T12:37:10.153Z,3.80
2023-10-25T12:39:57.736Z,3.30
2023-10-25T12:42:44.642Z,18.70
2023-10-25T12:45:32.746Z,5.70
2023-10-25T12:48:19.710Z,3.40
2023-10-25T12:51:06.816Z,3.00
2023-10-25T12:53:53.878Z,5.40
2023-10-25T12:56:41.285Z,5.90
2023-10-25T12:59:28.496Z,4.10
2023-10-25T13:02:15.570Z,5.80
2023-10-25T13:05:03.627Z,4.80
2023-10-25T13:07:50.802Z,7.10
2023-10-25T13:10:37.538Z,4.00
2023-10-25T13:13:24.398Z,6.60
2023-10-25T13:16:13.572Z,30.50
2023-10-25T13:19:01.891Z,6.00
2023-10-25T13:21:48.541Z,5.10
2023-10-25T13:24:35.653Z,7.50
2023-10-25T13:27:22.109Z,3.70
2023-10-25T13:30:09.864Z,3.50
2023-10-25T13:32:57.366Z,3.60
2023-10-25T13:35:44.617Z,4.90
2023-10-25T13:38:32.659Z,6.00
2023-10-25T13:41:21.158Z,5.70
2023-10-25T13:44:07.847Z,7.10
2023-10-25T13:46:54.638Z,3.20
2023-10-25T13:49:42.047Z,7.30
2023-10-25T13:52:29.194Z,4.40
2023-10-25T13:55:16.799Z,4.70
2023-10-25T13:58:03.885Z,4.10
2023-10-25T14:00:52.075Z,7.80
2023-10-25T14:03:38.780Z,6.50
2023-10-25T14:06:25.828Z,5.90
2023-10-25T14:09:13.020Z,9.10
2023-10-25T14:11:59.737Z,8.70
2023-10-25T14:14:46.882Z,9.80
2023-10-25T14:17:34.281Z,9.00
2023-10-25T14:20:21.049Z,11.10
2023-10-25T14:23:08.896Z,13.60
2023-10-25T14:25:55.834Z,15.40
2023-10-25T14:28:42.856Z,14.60
2023-10-25T14:31:29.815Z,12.80
2023-10-25T14:34:18.100Z,19.50
2023-10-25T14:37:09.177Z,15.80
2023-10-25T14:39:56.189Z,16.50
2023-10-25T14:42:44.563Z,20.70
2023-10-25T14:45:35.273Z,18.60
2023-10-25T14:48:22.145Z,18.50
2023-10-25T14:51:27.393Z,26.90
2023-10-25T14:54:15.148Z,33.30
2023-10-25T14:57:02.459Z,31.70
2023-10-25T14:59:52.342Z,26.80
2023-10-25T15:02:40.409Z,25.20
2023-10-25T15:05:27.294Z,31.40
2023-10-25T15:08:14.241Z,28.80
2023-10-25T15:11:03.065Z,29.20
2023-10-25T15:13:50.216Z,22.50
2023-10-25T15:16:36.813Z,18.10
2023-10-25T15:19:23.488Z,23.40
2023-10-25T15:22:10.086Z,38.20
2023-10-25T15:25:00.084Z,54.00
2023-10-25T15:27:47.260Z,63.50
2023-10-25T15:30:34.028Z,63.80
2023-10-25T15:33:24.501Z,64.40
2023-10-25T15:36:11.566Z,39.30
2023-10-25T15:39:09.088Z,87.90
2023-10-25T15:41:57.452Z,96.00
2023-10-25T15:44:44.679Z,136.80
2023-10-25T15:47:32.045Z,140.50
2023-10-25T15:50:19.286Z,106.90
2023-10-25T15:53:17.090Z,110.50
2023-10-25T15:56:09.054Z,112.40
2023-10-25T15:58:55.851Z,130.30
2023-10-25T16:01:52.154Z,124.60
2023-10-25T16:04:44.545Z,146.50
2023-10-25T16:07:31.426Z,124.00
2023-10-25T16:10:18.474Z,167.70
2023-10-25T16:13:05.240Z,90.90
2023-10-25T16:15:51.993Z,82.80
2023-10-25T16:18:38.987Z,116.20
2023-10-25T16:21:26.263Z,148.20
2023-10-25T16:24:13.222Z,218.30
2023-10-25T16:27:00.326Z,248.90
2023-10-25T16:29:49.471Z,226.20
2023-10-25T16:32:36.354Z,212.50
2023-10-25T16:35:24.008Z,189.30
2023-10-25T16:38:10.904Z,178.30
2023-10-25T16:41:09.255Z,167.40
2023-10-25T16:43:56.012Z,150.00
2023-10-25T16:46:43.991Z,145.80
2023-10-25T16:49:31.178Z,135.00
2023-10-25T16:52:18.203Z,138.30
2023-10-25T16:55:05.384Z,127.80
2023-10-25T16:57:52.236Z,113.10
2023-10-25T17:00:39.335Z,100.50
2023-10-25T17:03:27.768Z,104.10
2023-10-25T17:06:15.009Z,109.90
2023-10-25T17:09:01.934Z,114.40
2023-10-25T17:11:49.426Z,111.10
2023-10-25T17:14:36.571Z,110.80
2023-10-25T17:17:23.373Z,120.10
2023-10-25T17:20:10.935Z,106.90
2023-10-25T17:22:57.721Z,121.40
2023-10-25T17:25:46.148Z,130.40
2023-10-25T17:28:34.716Z,135.80
2023-10-25T17:31:21.788Z,138.20
2023-10-25T17:34:08.771Z,137.90
2023-10-25T17:36:57.766Z,126.30
2023-10-25T17:39:44.652Z,101.90
2023-10-25T17:42:31.840Z,124.40
2023-10-25T17:45:21.778Z,134.60
2023-10-25T17:48:08.491Z,158.40
2023-10-25T17:50:56.294Z,166.80
2023-10-25T17:53:43.439Z,181.70
2023-10-25T17:56:30.108Z,153.30
2023-10-25T17:59:16.858Z,139.80
2023-10-25T18:02:04.039Z,103.90
2023-10-25T18:04:51.033Z,108.70
2023-10-25T18:07:38.414Z,98.20
2023-10-25T18:10:25.197Z,106.00
2023-10-25T18:13:12.701Z,121.30
2023-10-25T18:15:59.656Z,109.90
2023-10-25T18:18:46.881Z,114.10
2023-10-25T18:21:33.943Z,106.60
2023-10-25T18:24:21.099Z,120.20
2023-10-25T18:27:08.257Z,124.10
2023-10-25T18:30:18.649Z,120.10
2023-10-25T18:33:06.823Z,142.50
2023-10-25T18:35:53.639Z,147.90
2023-10-25T18:38:40.659Z,148.40
2023-10-25T18:41:27.365Z,155.10
2023-10-25T18:44:14.121Z,178.20
2023-10-25T18:47:01.008Z,145.80
2023-10-25T18:49:47.570Z,161.20
2023-10-25T18:52:34.592Z,153.80
2023-10-25T18:55:22.046Z,162.60
2023-10-25T18:58:08.567Z,192.50
2023-10-25T19:00:57.069Z,170.90
2023-10-25T19:03:50.499Z,158.30
2023-10-25T19:06:42.394Z,164.60
2023-10-25T19:09:31.871Z,138.90
2023-10-25T19:12:21.737Z,141.30
2023-10-25T19:15:09.363Z,138.00
2023-10-25T19:17:58.879Z,131.60
2023-10-25T19:20:45.737Z,128.20
2023-10-25T19:23:32.623Z,133.60
2023-10-25T19:26:20.264Z,136.80
2023-10-25T19:29:07.670Z,115.30
2023-10-25T19:31:54.490Z,119.50
2023-10-25T19:34:41.338Z,120.20
2023-10-25T19:37:28.216Z,131.60
2023-10-25T19:40:18.929Z,131.30
2023-10-25T19:43:09.065Z,136.00
2023-10-25T19:45:56.331Z,132.90
2023-10-25T19:48:43.137Z,121.40
2023-10-25T19:51:30.312Z,137.40
2023-10-25T19:54:17.839Z,133.60
2023-10-25T19:57:05.679Z,143.10
2023-10-25T19:59:52.881Z,148.70
2023-10-25T20:02:43.426Z,191.90
2023-10-25T20:05:30.499Z,223.30
2023-10-25T20:08:23.154Z,184.50
2023-10-25T20:11:09.995Z,129.00
2023-10-25T20:13:57.607Z,121.00
2023-10-25T20:16:44.227Z,115.50
2023-10-25T20:19:30.977Z,165.60
2023-10-25T20:22:18.258Z,193.20
2023-10-25T20:25:05.874Z,191.70
2023-10-25T20:27:56.129Z,129.20
2023-10-25T20:30:44.057Z,118.70
2023-10-25T20:33:31.044Z,129.10
2023-10-25T20:36:18.474Z,107.40
2023-10-25T20:39:05.055Z,108.50
2023-10-25T20:41:54.048Z,94.40
2023-10-25T20:44:46.247Z,100.60
2023-10-25T20:47:33.422Z,97.20
2023-10-25T20:50:20.153Z,90.80
2023-10-25T20:53:07.087Z,88.30
2023-10-25T20:55:54.646Z,87.70
2023-10-25T20:58:41.729Z,100.30
2023-10-25T21:01:28.657Z,99.30
2023-10-25T21:04:15.807Z,90.00
2023-10-25T21:07:02.892Z,88.70
2023-10-25T21:09:49.720Z,104.20
2023-10-25T21:12:36.733Z,109.80
2023-10-25T21:15:24.558Z,112.60
2023-10-25T21:18:12.061Z,99.70
2023-10-25T21:20:59.327Z,110.10
2023-10-25T21:23:46.344Z,103.40
2023-10-25T21:26:34.378Z,113.60
2023-10-25T21:29:21.193Z,118.40
2023-10-25T21:32:07.824Z,112.10
2023-10-25T21:34:56.066Z,110.40
2023-10-25T21:37:42.808Z,100.30
2023-10-25T21:40:29.656Z,112.50
2023-10-25T21:43:18.389Z,109.20
2023-10-25T21:46:07.795Z,109.60
2023-10-25T21:48:54.957Z,117.60
2023-10-25T21:51:42.481Z,108.10
2023-10-25T21:54:29.977Z,105.20
2023-10-25T21:57:16.929Z,105.60
2023-10-25T22:00:09.979Z,101.80
2023-10-25T22:02:59.089Z,101.70
2023-10-25T22:05:49.372Z,100.10
2023-10-25T22:08:36.258Z,94.80
2023-10-25T22:11:25.044Z,96.00
2023-10-25T22:14:12.419Z,98.60
2023-10-25T22:16:59.962Z,100.70
2023-10-25T22:19:46.863Z,94.70
2023-10-25T22:22:34.111Z,85.60
2023-10-25T22:25:21.101Z,93.20
2023-10-25T22:28:08.142Z,82.00
2023-10-25T22:30:55.041Z,93.00
2023-10-25T22:33:42.096Z,86.10
2023-10-25T22:36:28.955Z,93.70
2023-10-25T22:39:16.678Z,103.30
2023-10-25T22:42:03.814Z,88.40
2023-10-25T22:44:50.598Z,91.90
2023-10-25T22:47:37.299Z,81.80
2023-10-25T22:50:24.226Z,96.90
2023-10-25T22:53:10.808Z,86.90
2023-10-25T22:56:03.618Z,85.90
2023-10-25T22:58:50.400Z,80.60
2023-10-25T23:01:37.302Z,70.60
2023-10-25T23:04:24.330Z,71.50
2023-10-25T23:07:11.445Z,75.50
2023-10-25T23:10:00.371Z,74.10
2023-10-25T23:12:47.376Z,84.10
2023-10-25T23:15:37.350Z,82.70
2023-10-25T23:18:24.317Z,82.20
2023-10-25T23:21:11.348Z,77.30
2023-10-25T23:23:57.989Z,76.20
2023-10-25T23:26:45.044Z,69.30
2023-10-25T23:29:32.385Z,82.80
2023-10-25T23:32:19.565Z,78.80
2023-10-25T23:35:06.350Z,80.90
2023-10-25T23:37:53.137Z,81.30
2023-10-25T23:40:39.719Z,81.90
2023-10-25T23:43:27.227Z,72.10
2023-10-25T23:46:14.128Z,73.50
2023-10-25T23:49:01.257Z,81.30
2023-10-25T23:51:48.385Z,82.60
2023-10-25T23:54:50.617Z,84.00
2023-10-25T23:57:42.350Z,91.50
